Time;durP1;ratioP1;P1;durP2;ratioP2;P2;SDS_P1;SDS_P2;PMS_P1;PMS_P2;Temp;Humidity;BMP_temperature;BMP_pressure;BME280_temperature;BME280_humidity;BME280_pressure;Samples;Min_cycle;Max_cycle;Signal;HPM_P1;HPM_P2
2021/12/31 00:00:04;;;;;;;2.00;1.70;;;12.10;99.90;;;;;;5126395;28;20440;-44
2021/12/31 00:02:30;;;;;;;1.70;1.60;;;12.10;99.90;;;;;;5128174;28;20172;-44
2021/12/31 00:04:56;;;;;;;2.80;1.80;;;12.00;99.90;;;;;;5133012;27;20806;-44
2021/12/31 00:07:21;;;;;;;2.80;1.80;;;12.00;99.90;;;;;;5113191;28;20184;-43
2021/12/31 00:09:47;;;;;;;3.10;2.27;;;12.00;99.90;;;;;;5126939;28;20424;-43
2021/12/31 00:12:13;;;;;;;5.37;2.40;;;11.90;99.90;;;;;;5127259;28;20174;-42
2021/12/31 00:14:41;;;;;;;4.23;2.97;;;11.90;99.90;;;;;;5128645;28;20172;-43
2021/12/31 00:17:07;;;;;;;3.10;2.10;;;11.80;99.90;;;;;;5126818;28;20251;-44
2021/12/31 00:19:39;;;;;;;4.13;2.73;;;11.70;99.90;;;;;;5128751;27;20582;-42
2021/12/31 00:22:32;;;;;;;3.03;2.27;;;11.70;99.90;;;;;;5109871;27;20425;-43
2021/12/31 00:24:52;;;;;;;4.40;2.30;;;11.70;99.90;;;;;;5129623;27;20474;-45
2021/12/31 00:27:18;;;;;;;2.67;2.47;;;11.60;99.90;;;;;;5132100;27;20834;-44
2021/12/31 00:29:44;;;;;;;4.73;2.57;;;11.60;99.90;;;;;;5130114;27;20403;-41
2021/12/31 00:32:10;;;;;;;2.73;2.03;;;11.50;99.90;;;;;;5113518;27;20451;-43
2021/12/31 00:34:35;;;;;;;2.50;2.03;;;11.50;99.90;;;;;;5130822;27;20175;-43
2021/12/31 00:37:01;;;;;;;1.83;1.73;;;11.40;99.90;;;;;;5128751;27;20189;-43
2021/12/31 00:39:27;;;;;;;3.60;2.87;;;11.40;99.90;;;;;;5110707;27;20196;-43
2021/12/31 00:41:52;;;;;;;4.70;2.77;;;11.40;99.90;;;;;;5110857;27;20197;-42
2021/12/31 00:44:19;;;;;;;6.93;2.80;;;11.40;99.90;;;;;;5109509;27;20206;-44
2021/12/31 00:46:44;;;;;;;3.57;2.50;;;11.30;99.90;;;;;;5128088;27;20251;-42
2021/12/31 00:49:10;;;;;;;3.90;2.80;;;11.30;99.90;;;;;;5130048;27;20741;-43
2021/12/31 00:51:38;;;;;;;5.50;3.60;;;11.20;99.90;;;;;;5131571;27;20208;-43
2021/12/31 00:54:04;;;;;;;3.20;2.30;;;11.30;99.90;;;;;;5119907;27;20439;-42
2021/12/31 00:56:30;;;;;;;2.37;1.70;;;11.20;99.90;;;;;;5131085;27;20725;-43
2021/12/31 00:58:55;;;;;;;4.17;2.13;;;11.10;99.90;;;;;;5131437;27;20252;-44
2021/12/31 01:01:22;;;;;;;2.70;1.60;;;11.10;99.90;;;;;;5129763;27;20223;-42
2021/12/31 01:03:48;;;;;;;3.67;2.70;;;11.10;99.90;;;;;;5131359;27;20210;-43
2021/12/31 01:06:15;;;;;;;3.33;2.33;;;11.10;99.90;;;;;;5130286;27;20481;-43
2021/12/31 01:08:41;;;;;;;3.10;2.40;;;11.10;99.90;;;;;;5134736;27;20466;-43
2021/12/31 01:11:08;;;;;;;2.90;2.40;;;11.10;99.90;;;;;;5131774;27;20433;-44
2021/12/31 01:13:51;;;;;;;2.43;2.23;;;11.00;99.90;;;;;;5111046;27;20510;-40
2021/12/31 01:16:19;;;;;;;3.97;3.10;;;10.90;99.90;;;;;;5113160;27;20440;-43
2021/12/31 01:21:20;;;;;;;2.40;2.20;;;10.90;99.90;;;;;;5129092;27;20465;-42
2021/12/31 01:23:48;;;;;;;2.10;1.80;;;10.80;99.90;;;;;;5130120;27;20470;-43
2021/12/31 01:26:13;;;;;;;4.10;2.13;;;10.70;99.90;;;;;;5129896;27;20503;-44
2021/12/31 01:28:39;;;;;;;3.00;1.87;;;10.70;99.90;;;;;;5136764;27;20425;-44
2021/12/31 01:31:05;;;;;;;2.77;1.67;;;10.70;99.90;;;;;;5131348;27;20187;-43
2021/12/31 01:33:34;;;;;;;2.97;1.87;;;10.60;99.90;;;;;;5133683;27;20198;-42
2021/12/31 01:35:59;;;;;;;3.10;1.87;;;10.70;99.90;;;;;;5131696;27;20187;-44
2021/12/31 01:38:25;;;;;;;3.03;1.67;;;10.60;99.90;;;;;;5112374;27;20419;-43
2021/12/31 01:40:52;;;;;;;2.40;2.07;;;10.50;99.90;;;;;;5139240;27;20192;-39
2021/12/31 01:43:18;;;;;;;2.13;1.87;;;10.50;99.90;;;;;;5140724;27;20199;-42
2021/12/31 01:45:53;;;;;;;3.53;2.77;;;10.40;99.90;;;;;;5140784;27;20416;-43
2021/12/31 01:48:48;;;;;;;4.43;1.87;;;10.30;99.90;;;;;;5140939;27;20408;-43
2021/12/31 01:51:07;;;;;;;2.10;1.80;;;10.30;99.90;;;;;;5139592;27;20500;-42
2021/12/31 01:53:33;;;;;;;4.23;2.00;;;10.30;99.90;;;;;;5140515;27;20412;-41
2021/12/31 01:56:01;;;;;;;4.27;2.03;;;10.20;99.90;;;;;;5140176;27;20202;-41
2021/12/31 01:58:27;;;;;;;2.63;1.80;;;10.20;99.90;;;;;;5122203;27;20174;-44
2021/12/31 02:00:54;;;;;;;3.13;1.90;;;10.20;99.90;;;;;;5140231;27;20429;-44
2021/12/31 02:03:24;;;;;;;3.00;2.27;;;10.20;99.90;;;;;;5140580;27;20467;-43
2021/12/31 02:05:49;;;;;;;3.30;1.90;;;10.10;99.90;;;;;;5139611;27;20766;-44
2021/12/31 02:08:16;;;;;;;2.90;1.93;;;10.10;99.90;;;;;;5140386;27;20402;-42
2021/12/31 02:10:41;;;;;;;3.77;1.87;;;10.10;99.90;;;;;;5140126;27;20481;-43
2021/12/31 02:13:08;;;;;;;1.97;1.50;;;10.10;99.90;;;;;;5140184;27;20417;-43
2021/12/31 02:18:56;;;;;;;2.50;2.00;;;10.00;99.90;;;;;;5139727;27;20831;-43
2021/12/31 02:21:22;;;;;;;2.30;2.10;;;10.00;99.90;;;;;;5139908;27;20488;-43
2021/12/31 02:23:51;;;;;;;2.50;1.70;;;10.00;99.90;;;;;;5140201;27;20559;-42
2021/12/31 02:26:17;;;;;;;2.17;1.90;;;9.90;99.90;;;;;;5122113;27;20175;-42
2021/12/31 02:28:43;;;;;;;2.17;1.70;;;9.90;99.90;;;;;;5139954;27;20867;-43
2021/12/31 02:31:08;;;;;;;2.50;1.73;;;9.90;99.90;;;;;;5139723;27;20459;-43
2021/12/31 02:33:36;;;;;;;3.33;1.90;;;9.80;99.90;;;;;;5139983;27;20242;-43
2021/12/31 02:36:04;;;;;;;2.37;2.17;;;9.80;99.90;;;;;;5139704;27;20189;-44
2021/12/31 02:38:30;;;;;;;2.50;1.73;;;9.80;99.90;;;;;;5140090;27;20416;-42
2021/12/31 02:40:56;;;;;;;2.77;2.10;;;9.70;99.90;;;;;;5139900;27;20730;-42
2021/12/31 02:43:21;;;;;;;2.67;2.10;;;9.70;99.90;;;;;;5120379;27;20589;-42
2021/12/31 02:45:47;;;;;;;2.00;1.70;;;9.70;99.90;;;;;;5139008;27;20519;-43
2021/12/31 02:48:13;;;;;;;3.13;1.80;;;9.60;99.90;;;;;;5139602;27;20436;-43
2021/12/31 02:50:41;;;;;;;1.97;1.60;;;9.60;99.90;;;;;;5139518;27;20497;-43
2021/12/31 02:53:10;;;;;;;3.23;2.10;;;9.60;99.90;;;;;;5139413;27;20514;-43
2021/12/31 02:55:37;;;;;;;3.53;1.83;;;9.60;99.90;;;;;;5139474;27;20416;-43
2021/12/31 02:58:04;;;;;;;2.87;1.90;;;9.50;99.90;;;;;;5139131;27;20851;-42
2021/12/31 03:00:30;;;;;;;2.57;2.00;;;9.60;99.90;;;;;;5139069;27;20760;-44
2021/12/31 03:03:00;;;;;;;3.00;2.10;;;9.50;99.90;;;;;;5120938;27;20416;-43
2021/12/31 03:05:27;;;;;;;2.93;1.90;;;9.60;99.90;;;;;;5138603;27;20544;-44
2021/12/31 03:07:54;;;;;;;3.60;1.87;;;9.50;99.90;;;;;;5120445;27;20419;-44
2021/12/31 03:10:20;;;;;;;3.30;2.00;;;9.50;99.90;;;;;;5138479;27;20454;-43
2021/12/31 03:12:51;;;;;;;2.43;1.80;;;9.40;99.90;;;;;;5120627;27;20468;-42
2021/12/31 03:15:17;;;;;;;5.30;2.07;;;9.40;99.90;;;;;;5138318;27;20440;-41
2021/12/31 03:17:44;;;;;;;3.60;2.47;;;9.40;99.90;;;;;;5120329;27;20419;-42
2021/12/31 03:20:13;;;;;;;2.20;1.80;;;9.40;99.90;;;;;;5120996;27;20428;-43
2021/12/31 03:22:39;;;;;;;3.40;1.70;;;9.40;99.90;;;;;;5139447;27;20420;-42
2021/12/31 03:25:06;;;;;;;3.23;2.30;;;9.40;99.90;;;;;;5139080;27;20575;-41
2021/12/31 03:27:32;;;;;;;3.00;1.93;;;9.40;99.90;;;;;;5139353;27;20524;-42
2021/12/31 03:29:58;;;;;;;3.07;1.87;;;9.40;99.90;;;;;;5138886;27;20417;-42
2021/12/31 03:32:24;;;;;;;2.30;1.90;;;9.40;99.90;;;;;;5139203;27;20451;-42
2021/12/31 03:34:49;;;;;;;2.20;1.90;;;9.30;99.90;;;;;;5138734;27;20497;-41
2021/12/31 03:37:15;;;;;;;2.00;1.80;;;9.20;99.90;;;;;;5120811;28;20182;-41
2021/12/31 03:39:41;;;;;;;2.80;2.00;;;9.20;99.90;;;;;;5138545;27;20181;-41
2021/12/31 03:42:06;;;;;;;2.13;1.70;;;9.20;99.90;;;;;;5138551;28;20220;-42
2021/12/31 03:44:32;;;;;;;3.03;1.83;;;9.20;99.90;;;;;;5138826;27;20204;-40
2021/12/31 03:46:58;;;;;;;3.67;1.77;;;9.10;99.90;;;;;;5138441;28;20183;-42
2021/12/31 03:49:23;;;;;;;2.93;1.70;;;9.10;99.90;;;;;;5138768;27;20264;-42
2021/12/31 03:51:49;;;;;;;2.37;2.00;;;9.00;99.90;;;;;;5138464;28;20249;-42
2021/12/31 03:54:14;;;;;;;2.37;1.87;;;9.00;99.90;;;;;;5138172;27;20179;-42
2021/12/31 03:56:40;;;;;;;3.83;1.93;;;9.00;99.90;;;;;;5142957;27;20183;-42
2021/12/31 03:59:06;;;;;;;3.40;2.50;;;9.00;99.90;;;;;;5143182;27;20185;-42
2021/12/31 04:01:31;;;;;;;2.53;1.90;;;9.00;99.90;;;;;;5142764;27;20431;-40
2021/12/31 04:03:57;;;;;;;3.63;2.43;;;9.00;99.90;;;;;;5142777;27;20214;-41
2021/12/31 04:06:23;;;;;;;2.80;1.80;;;9.00;99.90;;;;;;5142647;27;20247;-42
2021/12/31 04:08:51;;;;;;;4.53;2.17;;;8.90;99.90;;;;;;5142699;27;20410;-40
2021/12/31 04:11:17;;;;;;;3.07;2.17;;;8.90;99.90;;;;;;5124410;27;20434;-41
2021/12/31 04:13:42;;;;;;;4.93;2.03;;;8.80;99.90;;;;;;5142341;27;20697;-41
2021/12/31 04:16:08;;;;;;;5.70;2.13;;;8.80;99.90;;;;;;5142900;27;20436;-40
2021/12/31 04:18:34;;;;;;;2.57;2.37;;;8.70;99.90;;;;;;5142354;27;20266;-42
2021/12/31 04:21:01;;;;;;;2.23;1.87;;;8.70;99.90;;;;;;5141505;27;20178;-40
2021/12/31 04:23:34;;;;;;;3.30;2.13;;;8.70;99.90;;;;;;5123602;27;20310;-41
2021/12/31 04:26:00;;;;;;;3.13;2.10;;;8.60;99.90;;;;;;5142138;27;20412;-41
2021/12/31 04:28:27;;;;;;;3.00;1.83;;;8.60;99.90;;;;;;5142635;27;20838;-43
2021/12/31 04:30:53;;;;;;;2.63;1.97;;;8.60;99.90;;;;;;5142348;27;20412;-43
2021/12/31 04:33:18;;;;;;;3.97;2.60;;;8.50;99.90;;;;;;5142084;27;20440;-42
2021/12/31 04:35:44;;;;;;;1.80;1.70;;;8.40;99.90;;;;;;5142557;27;20203;-41
2021/12/31 04:38:10;;;;;;;2.17;1.97;;;8.40;99.90;;;;;;5141928;27;20256;-42
2021/12/31 04:40:36;;;;;;;2.50;2.00;;;8.30;99.90;;;;;;5141931;27;20476;-40
2021/12/31 04:43:01;;;;;;;2.80;2.20;;;8.30;99.90;;;;;;5141680;27;20184;-42
2021/12/31 04:45:27;;;;;;;3.10;2.20;;;8.30;99.90;;;;;;5140576;27;20258;-42
2021/12/31 04:47:54;;;;;;;2.60;2.00;;;8.30;99.90;;;;;;5140880;27;20186;-41
2021/12/31 04:50:19;;;;;;;3.33;2.47;;;8.30;99.90;;;;;;5140794;27;20177;-40
2021/12/31 04:52:46;;;;;;;1.93;1.70;;;8.20;99.90;;;;;;5140527;27;20428;-42
2021/12/31 04:55:12;;;;;;;2.80;2.50;;;8.20;99.90;;;;;;5140674;27;20228;-42
2021/12/31 04:57:39;;;;;;;3.07;2.47;;;8.20;99.90;;;;;;5122664;27;20740;-41
2021/12/31 05:00:08;;;;;;;2.37;2.07;;;8.10;99.90;;;;;;5136813;27;20470;-41
2021/12/31 05:02:34;;;;;;;3.80;2.90;;;8.10;99.90;;;;;;5115929;27;20439;-45
2021/12/31 05:05:01;;;;;;;5.73;2.37;;;8.10;99.90;;;;;;5140510;27;20908;-45
2021/12/31 05:07:27;;;;;;;3.37;2.60;;;8.10;99.90;;;;;;5140353;27;20571;-45
2021/12/31 05:09:53;;;;;;;3.43;3.13;;;8.10;99.90;;;;;;5140821;27;20674;-45
2021/12/31 05:12:25;;;;;;;2.97;2.67;;;8.10;99.90;;;;;;5122422;27;20428;-45
2021/12/31 05:14:53;;;;;;;3.30;2.50;;;8.10;99.90;;;;;;5140509;27;20191;-45
2021/12/31 05:17:21;;;;;;;2.60;2.37;;;8.10;99.90;;;;;;5140608;27;20527;-45
2021/12/31 05:19:48;;;;;;;4.53;3.13;;;8.10;99.90;;;;;;5140965;27;20414;-45
2021/12/31 05:22:14;;;;;;;7.23;3.57;;;8.10;99.90;;;;;;5122633;27;20539;-45
2021/12/31 05:24:40;;;;;;;4.83;3.67;;;8.00;99.90;;;;;;5141221;27;20719;-45
2021/12/31 05:27:09;;;;;;;3.07;2.77;;;8.00;99.90;;;;;;5140832;27;20423;-45
2021/12/31 05:29:35;;;;;;;2.97;2.23;;;8.00;99.90;;;;;;5131492;27;20410;-45
2021/12/31 05:32:01;;;;;;;3.13;2.20;;;8.00;99.90;;;;;;5119500;28;20434;-45
2021/12/31 05:34:27;;;;;;;3.13;2.30;;;8.00;99.90;;;;;;5119779;28;20401;-45
2021/12/31 05:36:52;;;;;;;3.03;2.20;;;8.10;99.90;;;;;;5119764;28;20440;-45
2021/12/31 05:39:18;;;;;;;3.27;2.53;;;8.10;99.90;;;;;;5119187;28;20172;-45
2021/12/31 05:41:44;;;;;;;4.20;2.63;;;8.10;99.90;;;;;;5100892;28;20184;-45
2021/12/31 05:44:09;;;;;;;3.80;2.50;;;8.10;99.90;;;;;;5118995;28;20360;-45
2021/12/31 05:46:36;;;;;;;4.53;3.23;;;8.10;99.90;;;;;;5119160;28;20270;-45
2021/12/31 05:49:03;;;;;;;4.27;3.13;;;8.10;99.90;;;;;;5119240;28;20172;-45
2021/12/31 05:51:28;;;;;;;2.90;2.23;;;8.10;99.90;;;;;;5119626;28;20425;-45
2021/12/31 05:53:54;;;;;;;2.53;2.00;;;8.10;99.90;;;;;;5119269;28;20429;-45
2021/12/31 05:56:20;;;;;;;2.90;2.20;;;8.10;99.90;;;;;;5119861;28;20654;-45
2021/12/31 05:58:46;;;;;;;2.67;2.47;;;8.10;99.90;;;;;;5120117;28;20533;-45
2021/12/31 06:01:11;;;;;;;3.50;2.13;;;8.10;99.90;;;;;;5129452;27;20288;-45
2021/12/31 06:03:37;;;;;;;3.33;2.10;;;8.10;99.90;;;;;;5122442;27;20215;-45
2021/12/31 06:06:03;;;;;;;3.53;2.70;;;8.10;99.90;;;;;;5132870;27;20233;-45
2021/12/31 06:08:28;;;;;;;5.00;3.13;;;8.00;99.90;;;;;;5140142;27;20221;-45
2021/12/31 06:10:54;;;;;;;4.07;2.60;;;8.00;99.90;;;;;;5140167;27;20618;-45
2021/12/31 06:13:20;;;;;;;3.20;2.30;;;8.00;99.90;;;;;;5139426;27;20164;-45
2021/12/31 06:15:48;;;;;;;2.90;2.30;;;8.10;99.90;;;;;;5140223;27;20179;-45
2021/12/31 06:18:14;;;;;;;3.13;2.33;;;8.20;99.90;;;;;;5139115;27;20719;-45
2021/12/31 06:20:43;;;;;;;2.80;2.50;;;8.20;99.90;;;;;;5139887;27;20408;-45
2021/12/31 06:23:08;;;;;;;3.20;2.23;;;8.20;99.90;;;;;;5140156;27;20235;-45
2021/12/31 06:25:34;;;;;;;3.03;2.20;;;8.20;99.90;;;;;;5139870;27;20768;-45
2021/12/31 06:28:01;;;;;;;3.33;2.23;;;8.20;99.90;;;;;;5140106;27;20273;-45
2021/12/31 06:30:27;;;;;;;3.23;2.93;;;8.20;99.90;;;;;;5138821;27;20258;-45
2021/12/31 06:32:53;;;;;;;4.10;2.57;;;8.30;99.90;;;;;;5138321;27;20439;-46
2021/12/31 06:35:19;;;;;;;2.90;2.67;;;8.40;99.90;;;;;;5138083;27;20571;-45
2021/12/31 06:37:45;;;;;;;3.50;3.13;;;8.40;99.90;;;;;;5120424;27;20529;-45
2021/12/31 06:40:12;;;;;;;3.53;2.60;;;8.50;99.90;;;;;;5129260;27;20427;-45
2021/12/31 06:42:38;;;;;;;3.53;2.57;;;8.40;99.90;;;;;;5137112;27;20439;-45
2021/12/31 06:45:04;;;;;;;3.87;2.93;;;8.40;99.90;;;;;;5137851;27;20471;-45
2021/12/31 06:47:30;;;;;;;3.23;2.93;;;8.40;99.90;;;;;;5138476;27;20533;-45
2021/12/31 06:49:55;;;;;;;3.93;3.63;;;8.30;99.90;;;;;;5137453;27;20444;-45
2021/12/31 06:52:21;;;;;;;4.80;3.97;;;8.30;99.90;;;;;;5138482;27;20184;-45
2021/12/31 06:54:47;;;;;;;5.13;4.53;;;8.30;99.90;;;;;;5138613;27;20171;-45
2021/12/31 06:57:13;;;;;;;4.33;3.47;;;8.30;99.90;;;;;;5139391;27;20244;-45
2021/12/31 06:59:38;;;;;;;4.90;4.40;;;8.30;99.90;;;;;;5139187;27;20459;-45
2021/12/31 07:02:04;;;;;;;4.37;3.97;;;8.30;99.90;;;;;;5129177;27;20445;-45
2021/12/31 07:04:30;;;;;;;5.10;4.60;;;8.30;99.90;;;;;;5127896;27;20249;-45
2021/12/31 07:06:55;;;;;;;4.73;4.27;;;8.20;99.90;;;;;;5102553;28;20326;-45
2021/12/31 07:09:23;;;;;;;6.50;4.87;;;8.20;99.90;;;;;;5118535;28;20175;-45
2021/12/31 07:11:48;;;;;;;6.40;5.73;;;8.20;99.90;;;;;;5126675;27;20186;-45
2021/12/31 07:14:14;;;;;;;5.67;5.10;;;8.20;99.90;;;;;;5128202;27;20421;-45
2021/12/31 07:16:40;;;;;;;6.07;5.47;;;8.20;99.90;;;;;;5123556;27;20197;-45
2021/12/31 07:19:05;;;;;;;6.17;4.87;;;8.20;99.90;;;;;;5139318;27;20185;-45
2021/12/31 07:21:31;;;;;;;6.17;4.80;;;8.20;99.90;;;;;;5130927;27;20278;-45
2021/12/31 07:23:56;;;;;;;6.07;5.30;;;8.30;99.90;;;;;;5130327;27;20212;-45
2021/12/31 07:26:25;;;;;;;7.60;5.50;;;8.30;99.90;;;;;;5132465;27;20202;-45
2021/12/31 07:28:50;;;;;;;7.40;6.17;;;8.30;99.90;;;;;;5138027;27;20179;-45
2021/12/31 07:31:16;;;;;;;6.13;5.53;;;8.30;99.90;;;;;;5138333;27;20493;-45
2021/12/31 07:33:42;;;;;;;5.93;5.33;;;8.30;99.90;;;;;;5138158;27;20171;-45
2021/12/31 07:36:08;;;;;;;6.83;5.80;;;8.30;99.90;;;;;;5137120;27;20417;-45
2021/12/31 07:38:40;;;;;;;5.90;5.17;;;8.40;99.90;;;;;;5137355;27;20633;-45
2021/12/31 07:41:06;;;;;;;6.10;5.33;;;8.40;99.90;;;;;;5136442;27;20509;-45
2021/12/31 07:43:32;;;;;;;6.27;5.67;;;8.40;99.90;;;;;;5136773;28;20463;-45
2021/12/31 07:45:59;;;;;;;7.40;6.10;;;8.40;99.90;;;;;;5137619;28;20405;-45
2021/12/31 07:48:24;;;;;;;5.87;5.27;;;8.40;99.90;;;;;;5137687;28;20424;-45
2021/12/31 07:50:51;;;;;;;6.73;5.90;;;8.50;99.90;;;;;;5137016;28;20499;-45
2021/12/31 07:53:17;;;;;;;6.47;5.27;;;8.60;99.90;;;;;;5136980;28;20242;-45
2021/12/31 07:55:43;;;;;;;7.30;6.50;;;8.60;99.90;;;;;;5130511;28;20430;-45
2021/12/31 07:58:11;;;;;;;6.97;6.00;;;8.70;99.90;;;;;;5117470;28;20422;-45
2021/12/31 08:00:37;;;;;;;6.50;5.60;;;8.80;99.90;;;;;;5118032;28;20436;-45
2021/12/31 08:03:03;;;;;;;8.33;5.00;;;8.80;99.90;;;;;;5117890;28;20473;-45
2021/12/31 08:05:30;;;;;;;6.43;5.70;;;8.90;99.90;;;;;;5117015;28;20238;-45
2021/12/31 08:07:56;;;;;;;7.00;6.30;;;9.00;99.90;;;;;;5117278;28;20828;-45
2021/12/31 08:10:22;;;;;;;8.00;6.80;;;9.00;99.90;;;;;;5116888;28;20420;-45
2021/12/31 08:12:48;;;;;;;8.90;7.50;;;9.20;99.90;;;;;;5117267;28;20427;-45
2021/12/31 08:15:16;;;;;;;7.43;6.37;;;9.30;99.90;;;;;;5117263;28;20886;-44
2021/12/31 08:17:42;;;;;;;9.43;7.40;;;9.50;99.90;;;;;;5117069;28;20559;-45
2021/12/31 08:20:09;;;;;;;8.10;7.30;;;9.90;99.90;;;;;;5116344;28;20423;-44
2021/12/31 08:22:34;;;;;;;7.23;6.53;;;10.40;99.90;;;;;;5117166;28;20187;-45
2021/12/31 08:25:00;;;;;;;6.50;5.90;;;10.80;99.90;;;;;;5117107;28;20463;-45
2021/12/31 08:27:26;;;;;;;6.73;5.90;;;11.20;99.90;;;;;;5116869;28;20207;-45
2021/12/31 08:29:51;;;;;;;7.17;5.97;;;11.40;99.90;;;;;;5116729;28;20190;-45
2021/12/31 08:32:17;;;;;;;7.37;5.90;;;11.60;99.90;;;;;;5117017;28;20213;-45
2021/12/31 08:34:42;;;;;;;6.87;6.17;;;11.80;99.90;;;;;;5116003;28;20182;-45
2021/12/31 08:37:08;;;;;;;3.00;2.60;;;12.10;99.90;;;;;;5116323;28;20211;-45
2021/12/31 08:39:34;;;;;;;4.90;4.27;;;12.60;99.90;;;;;;5116241;28;20175;-45
2021/12/31 08:42:00;;;;;;;4.70;3.77;;;12.90;99.90;;;;;;5117517;28;20217;-46
2021/12/31 08:44:27;;;;;;;7.70;3.80;;;13.30;99.90;;;;;;5119374;28;20202;-46
2021/12/31 08:46:53;;;;;;;5.23;4.20;;;13.60;99.90;;;;;;5101736;28;20524;-45
2021/12/31 08:49:19;;;;;;;5.03;4.60;;;14.00;99.90;;;;;;5120611;28;20761;-46
2021/12/31 08:51:45;;;;;;;5.07;4.23;;;14.40;99.90;;;;;;5120755;28;20497;-46
2021/12/31 08:54:11;;;;;;;4.60;4.13;;;14.70;99.90;;;;;;5121639;28;20495;-46
2021/12/31 08:56:37;;;;;;;7.70;6.73;;;14.80;99.90;;;;;;5120186;28;20448;-46
2021/12/31 08:59:04;;;;;;;7.63;6.83;;;14.70;97.80;;;;;;5118663;28;20649;-46
2021/12/31 09:01:32;;;;;;;7.87;6.50;;;14.60;97.30;;;;;;5118913;28;20418;-46
2021/12/31 09:03:58;;;;;;;6.03;5.40;;;14.40;97.30;;;;;;5119175;28;20305;-45
2021/12/31 09:06:24;;;;;;;6.33;5.10;;;14.10;97.80;;;;;;5120001;28;20514;-45
2021/12/31 09:08:49;;;;;;;6.50;5.80;;;13.90;98.10;;;;;;5119433;28;20210;-46
2021/12/31 09:11:15;;;;;;;8.17;6.87;;;13.80;98.70;;;;;;5118596;28;20174;-45
2021/12/31 09:13:42;;;;;;;8.03;7.23;;;13.70;98.50;;;;;;5119693;28;20183;-45
2021/12/31 09:16:09;;;;;;;8.50;7.60;;;13.60;98.30;;;;;;5118861;28;20420;-45
2021/12/31 09:18:35;;;;;;;8.07;7.23;;;13.30;98.60;;;;;;5118279;28;20512;-45
2021/12/31 09:21:01;;;;;;;9.70;8.70;;;12.90;99.00;;;;;;5101111;28;20532;-45
2021/12/31 09:23:26;;;;;;;10.67;8.43;;;12.60;99.90;;;;;;5119179;28;20871;-45
2021/12/31 09:25:52;;;;;;;7.87;7.00;;;12.40;99.90;;;;;;5118875;28;20247;-45
2021/12/31 09:28:18;;;;;;;8.03;7.23;;;12.20;99.90;;;;;;5118227;28;20176;-46
2021/12/31 09:30:44;;;;;;;10.30;9.20;;;12.20;99.90;;;;;;5101367;28;20174;-46
2021/12/31 09:33:12;;;;;;;9.03;8.13;;;12.20;99.90;;;;;;5100943;28;20431;-46
2021/12/31 09:35:39;;;;;;;8.23;7.30;;;12.20;99.90;;;;;;5118868;28;20181;-47
2021/12/31 09:38:08;;;;;;;10.70;8.40;;;12.10;99.90;;;;;;5119136;28;20428;-47
2021/12/31 09:40:35;;;;;;;9.33;8.10;;;12.20;99.90;;;;;;5101722;28;20421;-45
2021/12/31 09:43:03;;;;;;;10.20;9.00;;;12.10;99.90;;;;;;5118060;28;20481;-46
2021/12/31 09:45:31;;;;;;;9.40;8.37;;;11.90;99.90;;;;;;5084241;28;20785;-45
2021/12/31 09:47:59;;;;;;;10.67;9.07;;;11.90;99.90;;;;;;5119263;28;20506;-46
2021/12/31 09:50:26;;;;;;;8.60;7.60;;;11.80;99.90;;;;;;5120833;27;20415;-46
2021/12/31 09:52:54;;;;;;;9.53;8.50;;;11.80;99.90;;;;;;5099447;28;20733;-47
2021/12/31 09:55:44;;;;;;;9.37;8.37;;;11.90;99.90;;;;;;5083439;28;20437;-46
2021/12/31 09:58:11;;;;;;;8.40;7.60;;;12.20;99.90;;;;;;5134569;27;20423;-46
2021/12/31 10:00:41;;;;;;;8.50;7.23;;;12.30;99.90;;;;;;5138128;27;20793;-46
2021/12/31 10:03:12;;;;;;;8.93;8.03;;;12.40;99.90;;;;;;5136065;27;20411;-46
2021/12/31 10:05:43;;;;;;;8.87;7.97;;;12.30;99.90;;;;;;5136894;27;20480;-46
2021/12/31 10:08:19;;;;;;;8.40;7.60;;;12.50;99.90;;;;;;5137559;27;20418;-46
2021/12/31 10:11:04;;;;;;;7.80;7.10;;;12.70;99.90;;;;;;5137389;27;20422;-46
2021/12/31 10:13:31;;;;;;;9.33;8.33;;;13.10;99.90;;;;;;5119696;27;20460;-46
2021/12/31 10:15:57;;;;;;;7.97;7.17;;;13.00;99.90;;;;;;5120571;27;20421;-46
2021/12/31 10:18:37;;;;;;;8.73;7.83;;;13.50;99.90;;;;;;5120936;27;20477;-46
2021/12/31 10:21:06;;;;;;;8.03;7.33;;;13.20;99.40;;;;;;5139029;27;20427;-46
2021/12/31 10:23:37;;;;;;;9.10;8.20;;;13.40;99.30;;;;;;5137520;27;20478;-47
2021/12/31 10:26:07;;;;;;;9.07;8.13;;;13.50;99.20;;;;;;5136585;27;20882;-47
2021/12/31 10:28:34;;;;;;;7.70;7.00;;;14.00;99.20;;;;;;5118829;27;20702;-46
2021/12/31 10:31:13;;;;;;;7.67;6.97;;;14.30;97.80;;;;;;5137232;27;20535;-46
2021/12/31 10:33:42;;;;;;;9.17;8.27;;;14.40;97.20;;;;;;5138585;27;20419;-46
2021/12/31 10:36:08;;;;;;;7.57;6.87;;;14.70;97.20;;;;;;5119098;27;20591;-47
2021/12/31 10:38:36;;;;;;;6.77;6.10;;;14.90;96.00;;;;;;5138161;27;20821;-47
2021/12/31 10:41:04;;;;;;;7.37;6.70;;;15.20;96.20;;;;;;5119541;27;20827;-47
2021/12/31 10:43:30;;;;;;;6.27;5.67;;;15.40;95.40;;;;;;5137519;27;20694;-46
2021/12/31 10:45:58;;;;;;;6.97;6.27;;;15.30;95.70;;;;;;5138737;27;20425;-48
2021/12/31 10:48:38;;;;;;;8.00;7.20;;;15.30;95.00;;;;;;5138896;27;20405;-46
2021/12/31 10:51:04;;;;;;;7.53;6.77;;;15.20;95.20;;;;;;5138577;27;20488;-46
2021/12/31 10:53:33;;;;;;;7.63;6.83;;;15.10;95.10;;;;;;5120897;27;20447;-46
2021/12/31 10:56:10;;;;;;;7.30;6.60;;;14.90;95.20;;;;;;5119429;27;20433;-46
2021/12/31 10:58:38;;;;;;;8.47;7.67;;;14.60;95.70;;;;;;5136092;27;20730;-46
2021/12/31 11:01:05;;;;;;;7.70;6.90;;;14.70;96.20;;;;;;5136424;27;20427;-46
2021/12/31 11:03:32;;;;;;;5.50;4.97;;;14.90;96.00;;;;;;5133828;27;20467;-46
2021/12/31 11:05:58;;;;;;;5.70;5.20;;;15.80;95.90;;;;;;5135074;27;20729;-46
2021/12/31 11:08:24;;;;;;;5.93;5.43;;;17.00;95.10;;;;;;5101126;27;20447;-47
2021/12/31 11:10:50;;;;;;;6.17;5.60;;;18.40;91.70;;;;;;5119130;27;20178;-47
2021/12/31 11:13:19;;;;;;;5.97;5.40;;;20.00;88.30;;;;;;5137647;27;20461;-47
2021/12/31 11:15:46;;;;;;;5.00;4.60;;;21.00;83.80;;;;;;5116657;27;20523;-47
2021/12/31 11:18:13;;;;;;;6.30;5.70;;;22.10;79.20;;;;;;5136115;27;20439;-47
2021/12/31 11:20:40;;;;;;;6.20;5.57;;;23.30;74.00;;;;;;5136830;27;20835;-48
2021/12/31 11:23:05;;;;;;;6.30;5.60;;;24.00;68.50;;;;;;5135393;27;20442;-47
2021/12/31 11:25:31;;;;;;;6.27;5.67;;;23.80;65.80;;;;;;5134984;27;20467;-47
2021/12/31 11:27:58;;;;;;;5.20;4.80;;;24.30;65.60;;;;;;5135102;27;20500;-47
2021/12/31 11:30:31;;;;;;;5.83;5.33;;;24.60;62.60;;;;;;5136276;27;20178;-47
2021/12/31 11:33:14;;;;;;;5.90;5.40;;;24.20;62.70;;;;;;5134017;27;20530;-47
2021/12/31 11:35:44;;;;;;;5.20;4.80;;;24.10;62.60;;;;;;5135420;27;20412;-47
2021/12/31 11:38:45;;;;;;;5.20;4.70;;;24.80;61.70;;;;;;5134780;27;20990;-47
2021/12/31 11:41:14;;;;;;;5.40;5.00;;;25.70;59.30;;;;;;5133847;27;20417;-46
2021/12/31 11:43:41;;;;;;;4.93;4.53;;;26.60;57.10;;;;;;5118288;28;20460;-40
2021/12/31 11:46:12;;;;;;;5.10;4.70;;;26.70;55.30;;;;;;5123873;28;20739;-41
2021/12/31 11:48:47;;;;;;;4.20;3.90;;;26.60;54.80;;;;;;5116507;28;20711;-40
2021/12/31 11:51:16;;;;;;;4.90;4.50;;;26.00;54.90;;;;;;5116525;28;20391;-40
2021/12/31 11:54:14;;;;;;;5.30;4.90;;;26.50;54.00;;;;;;5116154;28;20670;-40
2021/12/31 11:56:40;;;;;;;6.03;5.00;;;26.70;53.70;;;;;;5085993;28;20677;-40
2021/12/31 12:01:40;;;;;;;4.60;3.97;;;27.00;53.10;;;;;;5115543;28;20859;-42
2021/12/31 12:04:25;;;;;;;4.30;4.00;;;27.40;51.90;;;;;;5114829;28;20740;-41
2021/12/31 12:06:53;;;;;;;4.60;4.20;;;27.30;51.70;;;;;;5115981;28;20485;-39
2021/12/31 12:09:19;;;;;;;4.30;3.90;;;26.40;51.50;;;;;;5115443;28;20802;-39
2021/12/31 12:12:07;;;;;;;3.50;3.20;;;25.70;52.50;;;;;;5116051;28;20550;-39
2021/12/31 12:14:42;;;;;;;3.90;3.60;;;25.50;53.80;;;;;;5116742;28;20551;-40
2021/12/31 12:17:09;;;;;;;3.87;3.57;;;26.20;52.60;;;;;;5119736;28;20516;-41
2021/12/31 12:19:49;;;;;;;3.60;3.30;;;26.30;52.40;;;;;;5119073;28;20431;-40
2021/12/31 12:22:39;;;;;;;3.60;3.30;;;26.60;52.00;;;;;;5101102;28;20417;-39
2021/12/31 12:25:11;;;;;;;4.03;3.73;;;26.70;51.70;;;;;;5118318;28;20461;-39
2021/12/31 12:27:38;;;;;;;7.00;5.13;;;27.10;51.20;;;;;;5101247;28;20727;-41
2021/12/31 12:30:07;;;;;;;4.90;4.50;;;27.20;50.90;;;;;;5119330;28;20389;-39
2021/12/31 12:35:27;;;;;;;4.77;4.37;;;24.70;52.70;;;;;;5099346;28;20433;-39
2021/12/31 12:38:07;;;;;;;4.40;4.07;;;24.20;54.30;;;;;;5118730;28;20513;-41
2021/12/31 12:40:47;;;;;;;4.70;4.30;;;24.90;53.90;;;;;;5141395;27;20431;-40
2021/12/31 12:43:16;;;;;;;4.13;3.77;;;25.90;53.20;;;;;;5140714;27;20444;-41
2021/12/31 12:45:43;;;;;;;4.47;4.07;;;27.00;51.90;;;;;;5156130;27;20411;-43
2021/12/31 12:48:09;;;;;;;4.13;3.83;;;28.30;50.50;;;;;;5121201;28;20861;-41
2021/12/31 12:50:37;;;;;;;3.43;3.13;;;28.40;48.70;;;;;;5120297;28;20414;-40
2021/12/31 12:53:03;;;;;;;3.70;3.40;;;27.40;49.50;;;;;;5151037;27;20466;-40
2021/12/31 12:55:29;;;;;;;4.13;3.73;;;26.60;50.40;;;;;;5161123;27;20420;-40
2021/12/31 12:58:02;;;;;;;3.57;3.23;;;25.80;51.60;;;;;;5153638;27;20513;-41
2021/12/31 13:00:35;;;;;;;3.63;3.33;;;25.20;52.60;;;;;;5128872;27;20768;-40
2021/12/31 13:03:08;;;;;;;3.70;3.40;;;24.60;53.40;;;;;;5118081;28;20827;-39